Terminal Aerodrome Forecast
Issued by NWS

Home | Current Version | Previous Version | Text Only | Print | Product List | Glossary On
Versions: 1 2 3 4 5 6 7 8 9 10 11 12 13 14 15 16 17
574
FTUS46 KPDT 140524
TAFPSC
TAF
KPSC 140524Z 1406/1506 20007KT P6SM SCT040 OVC090
     FM141300 22009KT P6SM OVC060
     FM141600 22009KT P6SM VCSH OVC040
     FM142000 23010KT P6SM BKN080 OVC150
     FM150400 22012KT P6SM OVC090=

USA.gov is the U.S. government's official web portal to all federal, state and local government web resources and services.